Time;durP1;ratioP1;P1;durP2;ratioP2;P2;SDS_P1;SDS_P2;PMS_P1;PMS_P2;Temp;Humidity;BMP_temperature;BMP_pressure;BME280_temperature;BME280_humidity;BME280_pressure;Samples;Min_cycle;Max_cycle;Signal;HPM_P1;HPM_P2
2022/03/25 00:02:17;;;;;;;12.55;7.65;;;;;;;;;;5098441;28;20071;-56
2022/03/25 00:04:43;;;;;;;22.52;6.22;;;;;;;;;;5095017;28;20064;-56
2022/03/25 00:07:08;;;;;;;9.00;6.47;;;;;;;;;;5098960;28;20051;-57
2022/03/25 00:09:34;;;;;;;10.60;7.30;;;;;;;;;;5098141;28;20119;-56
2022/03/25 00:11:59;;;;;;;11.02;7.15;;;;;;;;;;5096506;28;20728;-57
2022/03/25 00:14:24;;;;;;;12.40;5.85;;;;;;;;;;5097747;28;20056;-53
2022/03/25 00:16:50;;;;;;;27.83;8.82;;;;;;;;;;5093597;27;20058;-55
2022/03/25 00:19:16;;;;;;;18.75;6.55;;;;;;;;;;5096720;28;20082;-56
2022/03/25 00:21:41;;;;;;;13.55;7.20;;;;;;;;;;5097377;28;20056;-56
2022/03/25 00:24:06;;;;;;;15.63;6.90;;;;;;;;;;5097715;28;20044;-56
2022/03/25 00:26:32;;;;;;;9.38;7.53;;;;;;;;;;5097423;28;20130;-57
2022/03/25 00:28:57;;;;;;;13.48;6.45;;;;;;;;;;5097280;28;20387;-57
2022/03/25 00:31:22;;;;;;;22.67;8.77;;;;;;;;;;5095677;28;20101;-56
2022/03/25 00:33:51;;;;;;;8.80;6.68;;;;;;;;;;5097489;28;20047;-56
2022/03/25 00:36:18;;;;;;;13.13;7.28;;;;;;;;;;5097899;28;20098;-56
2022/03/25 00:38:46;;;;;;;16.02;6.78;;;;;;;;;;5096315;28;20294;-55
2022/03/25 00:41:12;;;;;;;10.85;7.03;;;;;;;;;;5100024;28;20047;-57
2022/03/25 00:43:38;;;;;;;17.02;7.30;;;;;;;;;;5098946;28;20044;-56
2022/03/25 00:46:04;;;;;;;29.77;7.93;;;;;;;;;;5098255;28;20043;-56
2022/03/25 00:48:29;;;;;;;18.98;7.82;;;;;;;;;;5097660;28;20125;-56
2022/03/25 00:50:55;;;;;;;24.10;7.18;;;;;;;;;;5096941;27;20035;-56
2022/03/25 00:53:21;;;;;;;10.30;6.35;;;;;;;;;;5097602;28;20435;-56
2022/03/25 00:55:46;;;;;;;10.15;7.10;;;;;;;;;;5096339;28;20093;-56
2022/03/25 00:58:15;;;;;;;18.52;6.70;;;;;;;;;;5096908;28;20167;-56
2022/03/25 01:00:41;;;;;;;17.60;8.07;;;;;;;;;;5100961;28;20043;-57
2022/03/25 01:03:07;;;;;;;14.80;6.97;;;;;;;;;;5096221;28;20671;-56
2022/03/25 01:05:35;;;;;;;11.63;6.93;;;;;;;;;;5094615;28;20059;-56
2022/03/25 01:08:01;;;;;;;15.88;9.23;;;;;;;;;;5096876;28;20055;-56
2022/03/25 01:10:26;;;;;;;11.40;5.57;;;;;;;;;;5093644;28;20035;-55
2022/03/25 01:12:51;;;;;;;10.13;5.68;;;;;;;;;;5097163;28;20165;-56
2022/03/25 01:15:17;;;;;;;23.45;7.57;;;;;;;;;;5096605;28;20503;-56
2022/03/25 01:17:42;;;;;;;7.85;5.20;;;;;;;;;;5094925;28;20198;-57
2022/03/25 01:20:09;;;;;;;11.75;7.20;;;;;;;;;;5095899;28;20478;-56
2022/03/25 01:22:34;;;;;;;22.55;7.13;;;;;;;;;;5096463;28;20056;-57
2022/03/25 01:24:59;;;;;;;18.95;7.90;;;;;;;;;;5097927;28;20054;-54
2022/03/25 01:27:25;;;;;;;18.48;7.65;;;;;;;;;;5095367;28;20039;-55
2022/03/25 01:29:50;;;;;;;6.13;4.72;;;;;;;;;;5096280;28;20059;-56
2022/03/25 01:32:16;;;;;;;18.58;6.88;;;;;;;;;;5094988;28;20044;-56
2022/03/25 01:34:41;;;;;;;14.85;5.90;;;;;;;;;;5094262;28;20542;-56
2022/03/25 01:37:07;;;;;;;20.40;6.40;;;;;;;;;;5095745;28;20032;-56
2022/03/25 01:39:32;;;;;;;24.58;7.20;;;;;;;;;;5096324;28;20044;-54
2022/03/25 01:41:59;;;;;;;11.75;7.97;;;;;;;;;;5096696;28;20054;-56
2022/03/25 01:44:25;;;;;;;11.35;5.80;;;;;;;;;;5097368;28;20047;-55
2022/03/25 01:46:52;;;;;;;14.48;7.07;;;;;;;;;;5093830;28;20044;-56
2022/03/25 01:49:18;;;;;;;8.10;7.30;;;;;;;;;;5098463;28;20050;-53
2022/03/25 01:51:43;;;;;;;20.10;7.97;;;;;;;;;;5095585;28;20115;-57
2022/03/25 01:54:19;;;;;;;17.33;6.80;;;;;;;;;;5097277;28;20028;-56
2022/03/25 01:56:44;;;;;;;13.93;5.75;;;;;;;;;;5098786;28;20047;-56
2022/03/25 01:59:10;;;;;;;14.45;6.47;;;;;;;;;;5096474;28;20028;-56
2022/03/25 02:01:36;;;;;;;9.38;5.90;;;;;;;;;;5095565;28;20051;-56
2022/03/25 02:04:01;;;;;;;9.65;5.68;;;;;;;;;;5093764;28;20055;-56
2022/03/25 02:06:26;;;;;;;10.02;6.80;;;;;;;;;;5093693;28;20048;-56
2022/03/25 02:08:52;;;;;;;8.18;6.40;;;;;;;;;;5096871;28;20039;-56
2022/03/25 02:11:18;;;;;;;15.35;7.63;;;;;;;;;;5095669;28;20040;-56
2022/03/25 02:13:43;;;;;;;5.22;4.72;;;;;;;;;;5096091;28;20036;-57
2022/03/25 02:16:09;;;;;;;11.02;6.13;;;;;;;;;;5094995;28;20044;-56
2022/03/25 02:18:34;;;;;;;33.17;6.97;;;;;;;;;;5095678;28;20101;-56
2022/03/25 02:20:59;;;;;;;19.60;6.55;;;;;;;;;;5096659;28;20048;-56
2022/03/25 02:23:25;;;;;;;14.73;5.85;;;;;;;;;;5097644;28;20130;-56
2022/03/25 02:25:51;;;;;;;18.70;6.25;;;;;;;;;;5097396;28;20360;-56
2022/03/25 02:28:16;;;;;;;11.85;5.85;;;;;;;;;;5096907;28;20060;-56
2022/03/25 02:30:42;;;;;;;9.80;6.18;;;;;;;;;;5096400;28;21021;-57
2022/03/25 02:33:07;;;;;;;10.00;5.40;;;;;;;;;;5096831;28;20506;-55
2022/03/25 02:35:37;;;;;;;10.63;5.90;;;;;;;;;;5097364;28;20047;-56
2022/03/25 02:38:03;;;;;;;15.60;7.63;;;;;;;;;;5092368;28;20047;-56
2022/03/25 02:40:28;;;;;;;14.65;5.97;;;;;;;;;;5095120;28;20577;-56
2022/03/25 02:42:53;;;;;;;20.67;6.28;;;;;;;;;;5096176;28;20050;-55
2022/03/25 02:45:22;;;;;;;12.55;6.85;;;;;;;;;;5096817;28;20093;-57
2022/03/25 02:47:47;;;;;;;6.55;5.72;;;;;;;;;;5094759;28;20032;-55
2022/03/25 02:50:12;;;;;;;14.52;6.70;;;;;;;;;;5098530;28;20055;-56
2022/03/25 02:52:38;;;;;;;18.67;6.78;;;;;;;;;;5097753;28;20797;-56
2022/03/25 02:55:03;;;;;;;21.20;7.72;;;;;;;;;;5099390;28;20059;-55
2022/03/25 02:57:28;;;;;;;6.72;5.18;;;;;;;;;;5098164;28;20052;-56
2022/03/25 02:59:54;;;;;;;25.20;6.38;;;;;;;;;;5097107;28;20078;-57
2022/03/25 03:02:19;;;;;;;10.13;7.70;;;;;;;;;;5098554;28;20031;-57
2022/03/25 03:04:45;;;;;;;7.68;3.58;;;;;;;;;;5099909;28;20513;-56
2022/03/25 03:07:10;;;;;;;19.10;7.47;;;;;;;;;;5099715;28;20097;-57
2022/03/25 03:09:35;;;;;;;13.02;5.78;;;;;;;;;;5097020;28;20047;-56
2022/03/25 03:12:01;;;;;;;11.95;6.15;;;;;;;;;;5099641;28;20099;-56
2022/03/25 03:14:26;;;;;;;25.25;6.85;;;;;;;;;;5099265;28;20040;-57
2022/03/25 03:16:51;;;;;;;12.57;5.20;;;;;;;;;;5099873;28;20052;-55
2022/03/25 03:19:17;;;;;;;14.63;5.88;;;;;;;;;;5098680;28;20046;-57
2022/03/25 03:21:42;;;;;;;15.60;6.57;;;;;;;;;;5100552;28;20051;-55
2022/03/25 03:24:08;;;;;;;16.42;6.55;;;;;;;;;;5098362;28;20044;-56
2022/03/25 03:26:34;;;;;;;15.60;7.75;;;;;;;;;;5098576;28;20536;-56
2022/03/25 03:28:59;;;;;;;22.83;6.53;;;;;;;;;;5099510;28;20043;-56
2022/03/25 03:31:24;;;;;;;15.95;6.88;;;;;;;;;;5098673;28;20055;-57
2022/03/25 03:33:50;;;;;;;12.85;4.93;;;;;;;;;;5100005;28;20502;-56
2022/03/25 03:36:15;;;;;;;14.77;6.20;;;;;;;;;;5099980;28;20126;-56
2022/03/25 03:38:41;;;;;;;12.10;5.90;;;;;;;;;;5098830;28;20123;-56
2022/03/25 03:41:06;;;;;;;13.02;5.68;;;;;;;;;;5098293;28;20665;-56
2022/03/25 03:43:31;;;;;;;21.05;7.53;;;;;;;;;;5097673;28;20047;-56
2022/03/25 03:45:56;;;;;;;10.68;4.60;;;;;;;;;;5096252;28;20097;-57
2022/03/25 03:48:22;;;;;;;8.93;6.32;;;;;;;;;;5098806;28;20507;-57
2022/03/25 03:50:49;;;;;;;11.75;5.63;;;;;;;;;;5095794;28;20047;-56
2022/03/25 03:53:14;;;;;;;12.30;5.10;;;;;;;;;;5095649;28;20044;-57
2022/03/25 03:55:39;;;;;;;15.50;5.65;;;;;;;;;;5097955;28;20036;-56
2022/03/25 03:58:05;;;;;;;13.20;5.88;;;;;;;;;;5096232;28;20047;-56
2022/03/25 04:00:32;;;;;;;15.63;6.53;;;;;;;;;;5096928;28;20074;-57
2022/03/25 04:02:57;;;;;;;9.25;5.50;;;;;;;;;;5097355;28;20399;-57
2022/03/25 04:05:23;;;;;;;13.68;7.05;;;;;;;;;;5095901;28;20048;-57
2022/03/25 04:07:48;;;;;;;8.98;5.43;;;;;;;;;;5097887;28;20093;-56
2022/03/25 04:10:14;;;;;;;9.23;5.07;;;;;;;;;;5099675;28;20414;-57
2022/03/25 04:12:40;;;;;;;9.05;5.05;;;;;;;;;;5099391;28;20524;-57
2022/03/25 04:15:09;;;;;;;7.88;4.25;;;;;;;;;;5096571;28;20039;-57
2022/03/25 04:17:35;;;;;;;17.95;5.63;;;;;;;;;;5103937;28;20040;-56
2022/03/25 04:20:00;;;;;;;9.48;5.15;;;;;;;;;;5098298;28;20067;-56
2022/03/25 04:22:25;;;;;;;6.38;5.60;;;;;;;;;;5100058;28;20569;-57
2022/03/25 04:24:52;;;;;;;12.95;5.20;;;;;;;;;;5097107;27;20036;-57
2022/03/25 04:27:17;;;;;;;5.28;3.58;;;;;;;;;;5098175;28;20043;-55
2022/03/25 04:29:43;;;;;;;6.93;3.25;;;;;;;;;;5098423;28;20040;-57
2022/03/25 04:32:08;;;;;;;8.73;3.50;;;;;;;;;;5097213;28;20150;-57
2022/03/25 04:34:34;;;;;;;2.92;2.63;;;;;;;;;;5096628;28;20100;-57
2022/03/25 04:36:59;;;;;;;8.55;3.95;;;;;;;;;;5097752;28;20052;-56
2022/03/25 04:39:24;;;;;;;9.60;5.18;;;;;;;;;;5093607;28;20052;-56
2022/03/25 04:41:50;;;;;;;14.13;4.05;;;;;;;;;;5097022;28;20050;-57
2022/03/25 04:44:15;;;;;;;9.20;4.22;;;;;;;;;;5096016;28;20483;-57
2022/03/25 04:46:40;;;;;;;9.10;4.85;;;;;;;;;;5097078;28;20131;-57
2022/03/25 04:49:08;;;;;;;14.10;6.15;;;;;;;;;;5096286;28;20050;-56
2022/03/25 04:51:34;;;;;;;13.10;4.70;;;;;;;;;;5095663;28;20093;-56
2022/03/25 04:53:59;;;;;;;18.80;5.47;;;;;;;;;;5097847;28;20529;-56
2022/03/25 04:56:25;;;;;;;14.80;6.80;;;;;;;;;;5096688;28;20415;-57
2022/03/25 04:58:50;;;;;;;10.00;4.78;;;;;;;;;;5096997;28;20042;-57
2022/03/25 05:01:15;;;;;;;21.00;6.13;;;;;;;;;;5100366;28;20040;-57
2022/03/25 05:03:40;;;;;;;13.02;4.95;;;;;;;;;;5095397;28;20398;-57
2022/03/25 05:06:06;;;;;;;7.82;5.40;;;;;;;;;;5096170;28;20489;-57
2022/03/25 05:08:31;;;;;;;6.43;4.93;;;;;;;;;;5094026;28;20039;-57
2022/03/25 05:10:56;;;;;;;26.77;7.13;;;;;;;;;;5096636;28;20066;-56
2022/03/25 05:13:22;;;;;;;9.88;5.80;;;;;;;;;;5098361;28;20561;-55
2022/03/25 05:15:47;;;;;;;8.30;4.88;;;;;;;;;;5095433;28;20216;-55
2022/03/25 05:18:13;;;;;;;18.58;8.57;;;;;;;;;;5094525;28;20180;-57
2022/03/25 05:20:38;;;;;;;12.52;5.80;;;;;;;;;;5096941;28;20071;-57
2022/03/25 05:23:03;;;;;;;15.25;5.18;;;;;;;;;;5095407;28;20051;-56
2022/03/25 05:25:28;;;;;;;8.68;6.40;;;;;;;;;;5094867;28;20624;-56
2022/03/25 05:27:57;;;;;;;12.77;6.50;;;;;;;;;;5096778;28;20055;-57
2022/03/25 05:30:30;;;;;;;8.15;6.00;;;;;;;;;;5099208;28;20122;-57
2022/03/25 05:32:55;;;;;;;8.43;5.65;;;;;;;;;;5097495;28;20077;-57
2022/03/25 05:35:22;;;;;;;10.13;6.80;;;;;;;;;;5090967;28;20194;-56
2022/03/25 05:37:48;;;;;;;12.68;6.35;;;;;;;;;;5096276;28;20052;-56
2022/03/25 05:40:13;;;;;;;14.15;7.68;;;;;;;;;;5095521;28;20063;-56
2022/03/25 05:42:39;;;;;;;7.50;5.78;;;;;;;;;;5098371;28;20430;-57
2022/03/25 05:45:05;;;;;;;9.50;6.53;;;;;;;;;;5096075;28;20042;-57
2022/03/25 05:47:30;;;;;;;13.35;5.82;;;;;;;;;;5098270;28;20101;-56
2022/03/25 05:49:57;;;;;;;13.70;7.38;;;;;;;;;;5095614;28;20056;-55
2022/03/25 05:52:22;;;;;;;15.82;7.85;;;;;;;;;;5096625;28;20124;-56
2022/03/25 05:54:47;;;;;;;10.52;6.47;;;;;;;;;;5098164;28;20062;-55
2022/03/25 05:57:13;;;;;;;15.68;6.10;;;;;;;;;;5099207;28;20043;-56
2022/03/25 05:59:38;;;;;;;9.65;5.55;;;;;;;;;;5096475;28;20040;-56
2022/03/25 06:02:03;;;;;;;7.95;7.00;;;;;;;;;;5095564;28;20301;-57
2022/03/25 06:04:29;;;;;;;8.82;6.63;;;;;;;;;;5095462;28;20075;-56
2022/03/25 06:06:54;;;;;;;10.30;6.47;;;;;;;;;;5093222;28;20067;-56
2022/03/25 06:09:19;;;;;;;20.52;6.68;;;;;;;;;;5098575;28;20093;-58
2022/03/25 06:11:45;;;;;;;19.55;5.32;;;;;;;;;;5095662;28;20176;-56
2022/03/25 06:14:10;;;;;;;11.27;5.55;;;;;;;;;;5095029;28;20044;-57
2022/03/25 06:16:35;;;;;;;8.60;5.45;;;;;;;;;;5099436;28;20590;-50
2022/03/25 06:19:01;;;;;;;12.18;6.25;;;;;;;;;;5093295;28;20440;-52
2022/03/25 06:21:26;;;;;;;14.98;5.80;;;;;;;;;;5093086;28;20048;-53
2022/03/25 06:23:52;;;;;;;8.38;5.80;;;;;;;;;;5096620;28;20062;-54
2022/03/25 06:26:17;;;;;;;10.88;4.85;;;;;;;;;;5099442;28;20052;-51
2022/03/25 06:28:42;;;;;;;13.40;5.68;;;;;;;;;;5098361;28;20112;-53
2022/03/25 06:31:08;;;;;;;7.10;4.70;;;;;;;;;;5098127;28;20524;-53
2022/03/25 06:33:34;;;;;;;8.95;4.95;;;;;;;;;;5100627;27;20109;-49
2022/03/25 06:36:00;;;;;;;14.65;7.28;;;;;;;;;;5097587;28;20123;-54
2022/03/25 06:38:26;;;;;;;20.92;7.50;;;;;;;;;;5099015;28;20047;-51
2022/03/25 06:40:51;;;;;;;13.25;6.97;;;;;;;;;;5099495;28;20105;-54
2022/03/25 06:43:16;;;;;;;10.07;6.60;;;;;;;;;;5101501;28;20097;-53
2022/03/25 06:45:41;;;;;;;13.73;7.93;;;;;;;;;;5099089;28;20043;-53
2022/03/25 06:48:07;;;;;;;15.75;7.80;;;;;;;;;;5097106;28;20035;-51
2022/03/25 06:50:32;;;;;;;13.73;7.30;;;;;;;;;;5099910;28;20032;-53
2022/03/25 06:53:00;;;;;;;32.83;8.50;;;;;;;;;;5097789;28;20165;-54
2022/03/25 06:55:26;;;;;;;7.80;7.00;;;;;;;;;;5101040;28;20047;-53
2022/03/25 06:57:51;;;;;;;8.82;6.28;;;;;;;;;;5101250;28;20034;-53
2022/03/25 07:00:18;;;;;;;15.75;6.38;;;;;;;;;;5103320;28;20184;-53
2022/03/25 07:02:44;;;;;;;12.68;7.07;;;;;;;;;;5101271;28;20040;-51
2022/03/25 07:05:10;;;;;;;12.45;7.88;;;;;;;;;;5097852;28;20055;-48
2022/03/25 07:07:36;;;;;;;20.20;7.40;;;;;;;;;;5098985;28;20336;-51
2022/03/25 07:10:02;;;;;;;22.00;10.13;;;;;;;;;;5097365;28;20051;-52
2022/03/25 07:12:27;;;;;;;23.15;14.80;;;;;;;;;;5098488;28;20051;-55
2022/03/25 07:14:53;;;;;;;15.48;10.52;;;;;;;;;;5098715;28;20048;-52
2022/03/25 07:17:18;;;;;;;19.60;10.05;;;;;;;;;;5095818;28;20131;-54
2022/03/25 07:19:43;;;;;;;26.60;10.65;;;;;;;;;;5102308;28;20044;-52
2022/03/25 07:22:09;;;;;;;10.10;8.10;;;;;;;;;;5097281;28;20043;-52
2022/03/25 07:24:34;;;;;;;18.23;10.13;;;;;;;;;;5096659;28;20105;-45
2022/03/25 07:26:59;;;;;;;17.88;10.90;;;;;;;;;;5101969;28;20051;-43
2022/03/25 07:29:24;;;;;;;30.73;14.35;;;;;;;;;;5100203;28;20062;-41
2022/03/25 07:31:50;;;;;;;21.67;9.85;;;;;;;;;;5099546;28;20497;-46
2022/03/25 07:34:15;;;;;;;9.98;6.15;;;;;;;;;;5101118;28;20179;-46
2022/03/25 07:36:40;;;;;;;16.45;10.00;;;;;;;;;;5098895;28;20067;-44
2022/03/25 07:39:06;;;;;;;12.75;11.27;;;;;;;;;;5098534;28;20517;-43
2022/03/25 07:41:31;;;;;;;30.50;14.93;;;;;;;;;;5097050;28;20051;-42
2022/03/25 07:43:56;;;;;;;11.98;9.88;;;;;;;;;;5096452;28;20052;-46
2022/03/25 07:46:23;;;;;;;11.13;8.05;;;;;;;;;;5093889;28;20422;-43
2022/03/25 07:48:49;;;;;;;18.50;6.38;;;;;;;;;;5097733;28;20044;-43
2022/03/25 07:51:14;;;;;;;9.02;6.20;;;;;;;;;;5099085;28;20048;-41
2022/03/25 07:53:39;;;;;;;19.08;6.28;;;;;;;;;;5098063;28;20038;-43
2022/03/25 07:56:05;;;;;;;14.65;7.25;;;;;;;;;;5098658;28;20503;-44
2022/03/25 07:58:31;;;;;;;17.42;7.30;;;;;;;;;;5097812;28;20457;-42
2022/03/25 08:00:56;;;;;;;17.00;6.97;;;;;;;;;;5097886;28;20055;-43
2022/03/25 08:03:22;;;;;;;16.38;8.02;;;;;;;;;;5099054;28;20055;-46
2022/03/25 08:05:48;;;;;;;11.25;7.25;;;;;;;;;;5098819;28;20151;-48
2022/03/25 08:08:15;;;;;;;10.65;6.15;;;;;;;;;;5097956;28;20565;-44
2022/03/25 08:10:41;;;;;;;11.13;7.50;;;;;;;;;;5098003;28;20506;-41
2022/03/25 08:13:07;;;;;;;12.35;8.35;;;;;;;;;;5113467;27;20054;-43
2022/03/25 08:15:33;;;;;;;8.57;7.22;;;;;;;;;;5095230;28;20114;-49
2022/03/25 08:18:00;;;;;;;9.15;7.50;;;;;;;;;;5097018;28;20035;-44
2022/03/25 08:20:30;;;;;;;11.85;8.73;;;;;;;;;;5098010;28;20054;-43
2022/03/25 08:22:57;;;;;;;15.40;9.75;;;;;;;;;;5094210;28;20336;-43
2022/03/25 08:28:06;;;;;;;11.35;7.47;;;;;;;;;;5094535;28;20066;-43
2022/03/25 08:30:33;;;;;;;8.50;7.30;;;;;;;;;;5094950;28;21070;-42
2022/03/25 08:32:58;;;;;;;18.35;8.20;;;;;;;;;;5094590;28;20083;-44
2022/03/25 08:35:27;;;;;;;13.48;7.47;;;;;;;;;;5096166;28;20522;-46
2022/03/25 08:37:53;;;;;;;9.73;8.27;;;;;;;;;;5094160;28;20155;-43
2022/03/25 08:40:19;;;;;;;17.17;9.52;;;;;;;;;;5091460;28;20143;-42
2022/03/25 08:42:44;;;;;;;14.45;8.10;;;;;;;;;;5092612;28;20091;-45
2022/03/25 08:45:13;;;;;;;23.90;9.80;;;;;;;;;;5089736;28;20043;-42
2022/03/25 08:47:38;;;;;;;14.15;9.45;;;;;;;;;;5096927;28;20134;-41
2022/03/25 08:50:04;;;;;;;9.38;7.82;;;;;;;;;;5096257;28;20131;-41
2022/03/25 08:52:29;;;;;;;20.02;9.43;;;;;;;;;;5095828;28;20482;-42
2022/03/25 08:54:55;;;;;;;10.32;8.93;;;;;;;;;;5098690;28;20050;-45
2022/03/25 08:57:20;;;;;;;20.13;8.13;;;;;;;;;;5096224;28;20048;-44
2022/03/25 08:59:45;;;;;;;14.43;9.23;;;;;;;;;;5096654;28;20052;-42
2022/03/25 09:02:10;;;;;;;13.82;8.00;;;;;;;;;;5096476;28;20729;-48
2022/03/25 09:04:36;;;;;;;18.33;8.77;;;;;;;;;;5097250;27;20078;-44
2022/03/25 09:07:01;;;;;;;8.32;7.45;;;;;;;;;;5097687;28;20659;-43
2022/03/25 09:09:27;;;;;;;17.80;8.98;;;;;;;;;;5093066;28;20036;-43
2022/03/25 09:11:53;;;;;;;18.45;8.75;;;;;;;;;;5096882;28;20062;-46
2022/03/25 09:14:19;;;;;;;18.50;9.82;;;;;;;;;;5094724;28;20047;-41
2022/03/25 09:16:44;;;;;;;14.40;5.82;;;;;;;;;;5096451;28;20126;-42
2022/03/25 09:19:10;;;;;;;21.75;7.90;;;;;;;;;;5097463;28;20043;-41
2022/03/25 09:21:35;;;;;;;15.25;8.32;;;;;;;;;;5097537;28;20052;-44
2022/03/25 09:24:00;;;;;;;14.38;10.13;;;;;;;;;;5096763;28;20158;-42
2022/03/25 09:26:26;;;;;;;11.52;8.93;;;;;;;;;;5096527;28;20485;-47
2022/03/25 09:28:51;;;;;;;13.35;7.95;;;;;;;;;;5096514;28;20028;-45
2022/03/25 09:31:16;;;;;;;11.75;6.22;;;;;;;;;;5098409;28;20040;-42
2022/03/25 09:33:42;;;;;;;8.63;6.82;;;;;;;;;;5094731;28;20050;-42
2022/03/25 09:36:07;;;;;;;24.27;10.13;;;;;;;;;;5094917;28;20247;-46
2022/03/25 09:38:32;;;;;;;10.90;8.13;;;;;;;;;;5096635;28;20639;-44
2022/03/25 09:40:58;;;;;;;14.65;8.20;;;;;;;;;;5094977;28;20067;-49
2022/03/25 09:43:24;;;;;;;31.42;9.60;;;;;;;;;;5094832;28;20070;-47
2022/03/25 09:45:49;;;;;;;25.30;9.02;;;;;;;;;;5097429;28;20465;-44
2022/03/25 09:48:14;;;;;;;30.23;8.77;;;;;;;;;;5096699;28;20413;-42
2022/03/25 09:50:40;;;;;;;10.05;8.00;;;;;;;;;;5095989;28;20051;-44
2022/03/25 09:53:06;;;;;;;22.25;8.43;;;;;;;;;;5096878;28;20043;-44
2022/03/25 09:55:32;;;;;;;12.45;8.95;;;;;;;;;;5095405;28;20566;-43
2022/03/25 09:57:57;;;;;;;10.93;7.70;;;;;;;;;;5093568;28;20122;-44
2022/03/25 10:00:23;;;;;;;18.63;9.38;;;;;;;;;;5097772;28;20048;-44
2022/03/25 10:02:48;;;;;;;15.27;9.60;;;;;;;;;;5095916;28;20558;-45
2022/03/25 10:05:20;;;;;;;11.30;9.23;;;;;;;;;;5096349;28;20082;-45
2022/03/25 10:07:50;;;;;;;13.20;8.88;;;;;;;;;;5098068;28;20036;-42
2022/03/25 10:10:16;;;;;;;14.88;9.80;;;;;;;;;;5095344;28;20047;-45
2022/03/25 10:12:43;;;;;;;27.10;9.98;;;;;;;;;;5096485;28;20055;-43
2022/03/25 10:15:17;;;;;;;24.60;10.93;;;;;;;;;;5092869;28;20050;-45
2022/03/25 10:17:50;;;;;;;14.25;8.32;;;;;;;;;;5098146;28;20071;-46
2022/03/25 10:20:16;;;;;;;32.30;11.20;;;;;;;;;;5096380;28;20469;-46
2022/03/25 10:22:56;;;;;;;17.17;10.32;;;;;;;;;;5095027;28;20048;-47
2022/03/25 10:25:31;;;;;;;16.48;8.45;;;;;;;;;;5090930;28;20139;-46
2022/03/25 10:27:57;;;;;;;24.30;10.52;;;;;;;;;;5096663;28;20058;-48
2022/03/25 10:30:39;;;;;;;14.52;8.25;;;;;;;;;;5098004;28;20051;-45
2022/03/25 10:33:08;;;;;;;23.23;10.25;;;;;;;;;;5098138;28;20047;-48
2022/03/25 10:35:50;;;;;;;23.58;8.23;;;;;;;;;;5093020;28;20349;-44
2022/03/25 10:38:16;;;;;;;8.73;7.15;;;;;;;;;;5097878;28;20047;-49
2022/03/25 10:40:51;;;;;;;13.23;8.25;;;;;;;;;;5094761;28;20054;-43
2022/03/25 10:43:16;;;;;;;21.27;8.57;;;;;;;;;;5094012;28;20075;-46
2022/03/25 10:45:41;;;;;;;10.20;7.32;;;;;;;;;;5097212;28;20067;-44
2022/03/25 10:48:11;;;;;;;22.30;9.23;;;;;;;;;;5097432;28;20138;-44
2022/03/25 10:50:53;;;;;;;15.20;9.07;;;;;;;;;;5097298;28;20316;-42
2022/03/25 10:53:20;;;;;;;16.42;9.70;;;;;;;;;;5093587;28;20039;-41
2022/03/25 10:55:56;;;;;;;9.55;7.53;;;;;;;;;;5093709;28;20831;-44
2022/03/25 10:58:21;;;;;;;27.05;9.48;;;;;;;;;;5096348;28;20040;-45
2022/03/25 11:00:48;;;;;;;18.00;9.35;;;;;;;;;;5097548;28;20498;-43
2022/03/25 11:03:16;;;;;;;12.30;8.93;;;;;;;;;;5097509;28;20478;-44
2022/03/25 11:05:42;;;;;;;15.85;8.93;;;;;;;;;;5096513;28;20481;-41
2022/03/25 11:08:08;;;;;;;26.60;9.07;;;;;;;;;;5097923;28;20047;-44
2022/03/25 11:10:34;;;;;;;14.70;6.97;;;;;;;;;;5098281;28;20039;-43
2022/03/25 11:13:01;;;;;;;14.02;6.80;;;;;;;;;;5097201;28;20097;-42
2022/03/25 11:15:27;;;;;;;20.08;8.65;;;;;;;;;;5099450;28;20735;-46
2022/03/25 11:17:52;;;;;;;10.98;7.50;;;;;;;;;;5097220;28;20040;-40
2022/03/25 11:20:21;;;;;;;30.75;10.20;;;;;;;;;;5097096;28;20562;-43
2022/03/25 11:22:55;;;;;;;12.02;7.88;;;;;;;;;;5100432;28;20051;-46
2022/03/25 11:25:21;;;;;;;12.52;9.77;;;;;;;;;;5097955;28;20079;-45
2022/03/25 11:27:56;;;;;;;28.48;10.00;;;;;;;;;;5099021;28;20051;-44
2022/03/25 11:30:21;;;;;;;8.77;7.43;;;;;;;;;;5098692;28;20116;-43
2022/03/25 11:32:48;;;;;;;30.95;9.70;;;;;;;;;;5101078;28;20421;-44
2022/03/25 11:35:20;;;;;;;13.32;8.40;;;;;;;;;;5099889;28;20444;-45
2022/03/25 11:37:46;;;;;;;16.08;8.40;;;;;;;;;;5101350;28;20036;-44
2022/03/25 11:40:14;;;;;;;21.00;9.23;;;;;;;;;;5101341;28;20104;-45
2022/03/25 11:42:44;;;;;;;25.00;9.77;;;;;;;;;;5095457;28;20066;-44
2022/03/25 11:45:37;;;;;;;15.55;9.40;;;;;;;;;;5096367;28;20091;-44
2022/03/25 11:48:05;;;;;;;13.98;7.30;;;;;;;;;;5097815;28;20048;-41
2022/03/25 11:50:34;;;;;;;16.40;8.35;;;;;;;;;;5098001;28;20059;-44
2022/03/25 11:53:12;;;;;;;38.78;9.13;;;;;;;;;;5100065;28;20694;-48
2022/03/25 11:56:00;;;;;;;15.30;8.82;;;;;;;;;;5101577;28;20035;-45
2022/03/25 11:58:30;;;;;;;18.92;6.32;;;;;;;;;;5099074;28;20119;-42
2022/03/25 12:01:01;;;;;;;33.30;8.43;;;;;;;;;;5096001;28;20069;-45
2022/03/25 12:03:43;;;;;;;25.45;8.65;;;;;;;;;;5100140;28;20051;-41
2022/03/25 12:06:08;;;;;;;16.20;8.38;;;;;;;;;;5098989;28;20430;-44
2022/03/25 12:08:39;;;;;;;24.42;8.88;;;;;;;;;;5096413;28;20036;-44
2022/03/25 12:11:06;;;;;;;17.50;8.88;;;;;;;;;;5092396;28;20127;-45
2022/03/25 12:13:50;;;;;;;23.55;8.05;;;;;;;;;;5096646;28;20079;-44
2022/03/25 12:16:34;;;;;;;18.65;9.93;;;;;;;;;;5098076;28;20055;-45
2022/03/25 12:18:59;;;;;;;19.15;8.35;;;;;;;;;;5098420;28;20146;-44
2022/03/25 12:21:24;;;;;;;9.73;7.78;;;;;;;;;;5097194;28;20054;-46
2022/03/25 12:23:56;;;;;;;15.05;8.48;;;;;;;;;;5098422;28;20044;-42
2022/03/25 12:26:38;;;;;;;13.55;8.38;;;;;;;;;;5099679;28;20051;-47
2022/03/25 12:29:03;;;;;;;;;;;;;;;;;;5098899;28;20135;-42
2022/03/25 12:31:29;;;;;;;22.10;9.65;;;;;;;;;;5099659;28;20038;-45
2022/03/25 12:34:00;;;;;;;13.45;10.15;;;;;;;;;;5100490;28;20038;-45
2022/03/25 12:36:27;;;;;;;17.85;8.93;;;;;;;;;;5097535;28;20043;-46
2022/03/25 12:38:55;;;;;;;16.77;8.82;;;;;;;;;;5098457;28;20047;-46
2022/03/25 12:41:27;;;;;;;20.48;9.05;;;;;;;;;;5094965;28;20043;-47
2022/03/25 12:43:59;;;;;;;19.33;8.98;;;;;;;;;;5095649;28;20101;-45
2022/03/25 12:46:25;;;;;;;14.20;7.55;;;;;;;;;;5096348;28;20058;-41
2022/03/25 12:48:51;;;;;;;13.77;9.02;;;;;;;;;;5094762;28;20040;-45
2022/03/25 12:51:20;;;;;;;27.48;9.90;;;;;;;;;;5095744;28;20624;-46
2022/03/25 12:53:47;;;;;;;22.08;10.27;;;;;;;;;;5094271;28;20055;-42
2022/03/25 12:56:13;;;;;;;14.48;7.28;;;;;;;;;;5099705;28;20503;-45
2022/03/25 12:58:40;;;;;;;12.80;9.05;;;;;;;;;;5097692;28;20610;-48
2022/03/25 13:01:05;;;;;;;20.55;10.50;;;;;;;;;;5096595;28;20440;-43
2022/03/25 13:03:31;;;;;;;21.23;10.40;;;;;;;;;;5099024;28;20058;-45
2022/03/25 13:05:56;;;;;;;8.75;7.38;;;;;;;;;;5098767;28;20046;-48
2022/03/25 13:08:23;;;;;;;30.63;10.43;;;;;;;;;;5096207;28;20099;-43
2022/03/25 13:10:56;;;;;;;32.40;7.85;;;;;;;;;;5093507;28;20043;-45
2022/03/25 13:13:22;;;;;;;11.82;7.32;;;;;;;;;;5097129;28;20043;-49
2022/03/25 13:15:47;;;;;;;10.73;8.73;;;;;;;;;;5094571;28;20051;-46
2022/03/25 13:18:13;;;;;;;13.02;7.53;;;;;;;;;;5098979;28;20079;-45
2022/03/25 13:20:39;;;;;;;19.90;9.35;;;;;;;;;;5099130;28;20040;-42
2022/03/25 13:23:04;;;;;;;18.55;10.32;;;;;;;;;;5096732;28;20059;-44
2022/03/25 13:25:38;;;;;;;25.73;9.40;;;;;;;;;;5097297;28;20566;-44
2022/03/25 13:28:14;;;;;;;23.35;8.73;;;;;;;;;;5095774;28;20047;-42
2022/03/25 13:30:49;;;;;;;11.57;9.18;;;;;;;;;;5097194;28;20526;-43
2022/03/25 13:33:16;;;;;;;17.77;8.23;;;;;;;;;;5097709;28;20043;-44
2022/03/25 13:35:42;;;;;;;13.50;8.57;;;;;;;;;;5097949;28;20052;-47
2022/03/25 13:38:08;;;;;;;14.63;8.88;;;;;;;;;;5093763;28;20036;-45
2022/03/25 13:40:35;;;;;;;14.80;9.40;;;;;;;;;;5096560;28;20036;-46
2022/03/25 13:43:03;;;;;;;21.17;9.05;;;;;;;;;;5095039;28;20237;-44
2022/03/25 13:45:28;;;;;;;12.27;8.13;;;;;;;;;;5097121;28;20135;-45
2022/03/25 13:47:58;;;;;;;17.55;8.07;;;;;;;;;;5097896;28;20134;-44
2022/03/25 13:50:23;;;;;;;16.20;7.55;;;;;;;;;;5097235;28;20127;-44
2022/03/25 13:52:56;;;;;;;14.13;7.97;;;;;;;;;;5098074;28;20130;-44
2022/03/25 13:55:30;;;;;;;11.50;7.82;;;;;;;;;;5097307;28;20055;-47
2022/03/25 13:57:56;;;;;;;11.57;7.18;;;;;;;;;;5097331;28;20040;-45
2022/03/25 14:00:28;;;;;;;10.18;8.50;;;;;;;;;;5095071;28;20529;-45
2022/03/25 14:02:53;;;;;;;11.00;8.13;;;;;;;;;;5096637;28;20121;-45
2022/03/25 14:05:25;;;;;;;15.32;6.97;;;;;;;;;;5097383;28;20083;-43
2022/03/25 14:07:50;;;;;;;;;;;;;;;;;;5096117;28;20055;-42
2022/03/25 14:10:15;;;;;;;18.27;7.32;;;;;;;;;;5094836;28;19915;-43
2022/03/25 14:12:41;;;;;;;13.10;7.97;;;;;;;;;;5095982;28;20116;-44
2022/03/25 14:15:07;;;;;;;12.20;5.50;;;;;;;;;;5096961;28;20134;-45
2022/03/25 14:17:41;;;;;;;17.63;6.75;;;;;;;;;;5098315;28;20047;-46
2022/03/25 14:20:15;;;;;;;13.25;5.82;;;;;;;;;;5093600;28;20036;-44
2022/03/25 14:22:41;;;;;;;20.30;6.60;;;;;;;;;;5095150;28;20071;-44
2022/03/25 14:25:07;;;;;;;17.63;7.57;;;;;;;;;;5094245;28;20053;-42
2022/03/25 14:27:33;;;;;;;19.42;7.20;;;;;;;;;;5097083;28;20555;-43
2022/03/25 14:29:58;;;;;;;13.75;7.18;;;;;;;;;;5096155;28;20036;-45
2022/03/25 14:32:23;;;;;;;18.77;7.35;;;;;;;;;;5097303;28;20523;-42